sensor_id;sensor_type;location;lat;lon;timestamp;pressure;altitude;pressure_sealevel;temperature;humidity
21803;BME280;18591;47.080;22.214;2023-02-22T00:00:15;99454.28;;;10.72;52.94
21803;BME280;18591;47.080;22.214;2023-02-22T00:02:20;99455.28;;;10.69;52.91
21803;BME280;18591;47.080;22.214;2023-02-22T00:04:33;99463.38;;;10.67;52.94
21803;BME280;18591;47.080;22.214;2023-02-22T00:06:36;99463.69;;;10.60;52.58
21803;BME280;18591;47.080;22.214;2023-02-22T00:08:38;99464.72;;;10.56;52.54
21803;BME280;18591;47.080;22.214;2023-02-22T00:10:41;99450.72;;;10.48;52.82
21803;BME280;18591;47.080;22.214;2023-02-22T00:12:43;99462.28;;;10.50;52.94
21803;BME280;18591;47.080;22.214;2023-02-22T00:14:45;99459.00;;;10.43;52.82
21803;BME280;18591;47.080;22.214;2023-02-22T00:16:47;99459.03;;;10.41;52.80
21803;BME280;18591;47.080;22.214;2023-02-22T00:18:51;99461.72;;;10.41;53.12
21803;BME280;18591;47.080;22.214;2023-02-22T00:20:57;99463.88;;;10.32;52.94
21803;BME280;18591;47.080;22.214;2023-02-22T00:23:03;99466.69;;;10.29;53.18
21803;BME280;18591;47.080;22.214;2023-02-22T00:25:08;99466.78;;;10.25;53.02
21803;BME280;18591;47.080;22.214;2023-02-22T00:27:10;99468.63;;;10.23;53.03
21803;BME280;18591;47.080;22.214;2023-02-22T00:29:12;99474.84;;;10.25;52.73
21803;BME280;18591;47.080;22.214;2023-02-22T00:31:14;99471.38;;;10.22;52.71
21803;BME280;18591;47.080;22.214;2023-02-22T00:33:18;99463.38;;;10.20;52.71
21803;BME280;18591;47.080;22.214;2023-02-22T00:35:26;99458.34;;;10.11;52.92
21803;BME280;18591;47.080;22.214;2023-02-22T00:37:29;99465.50;;;10.12;52.78
21803;BME280;18591;47.080;22.214;2023-02-22T00:39:34;99464.72;;;10.09;52.94
21803;BME280;18591;47.080;22.214;2023-02-22T00:41:36;99460.34;;;10.06;53.02
21803;BME280;18591;47.080;22.214;2023-02-22T00:43:38;99459.47;;;10.06;53.11
21803;BME280;18591;47.080;22.214;2023-02-22T00:45:40;99463.31;;;9.98;52.97
21803;BME280;18591;47.080;22.214;2023-02-22T00:47:43;99465.13;;;9.98;53.01
21803;BME280;18591;47.080;22.214;2023-02-22T00:49:48;99468.75;;;9.97;53.09
21803;BME280;18591;47.080;22.214;2023-02-22T00:51:50;99466.09;;;9.95;52.94
21803;BME280;18591;47.080;22.214;2023-02-22T00:53:52;99459.91;;;9.93;53.09
21803;BME280;18591;47.080;22.214;2023-02-22T00:55:55;99457.31;;;9.92;53.85
21803;BME280;18591;47.080;22.214;2023-02-22T00:57:58;99469.13;;;9.86;54.05
21803;BME280;18591;47.080;22.214;2023-02-22T01:00:05;99461.41;;;9.77;53.84
21803;BME280;18591;47.080;22.214;2023-02-22T01:02:13;99463.94;;;9.81;53.75
21803;BME280;18591;47.080;22.214;2023-02-22T01:04:15;99453.22;;;9.81;53.25
21803;BME280;18591;47.080;22.214;2023-02-22T01:06:19;99463.13;;;9.79;53.39
21803;BME280;18591;47.080;22.214;2023-02-22T01:08:21;99453.38;;;9.77;53.25
21803;BME280;18591;47.080;22.214;2023-02-22T01:10:27;99453.53;;;9.72;53.66
21803;BME280;18591;47.080;22.214;2023-02-22T01:12:30;99466.00;;;9.73;53.63
21803;BME280;18591;47.080;22.214;2023-02-22T01:14:32;99459.84;;;9.71;53.72
21803;BME280;18591;47.080;22.214;2023-02-22T01:16:35;99462.59;;;9.68;53.25
21803;BME280;18591;47.080;22.214;2023-02-22T01:18:37;99464.53;;;9.65;53.46
21803;BME280;18591;47.080;22.214;2023-02-22T01:20:40;99462.69;;;9.67;53.48
21803;BME280;18591;47.080;22.214;2023-02-22T01:22:45;99472.03;;;9.55;54.17
21803;BME280;18591;47.080;22.214;2023-02-22T01:24:49;99468.25;;;9.60;53.67
21803;BME280;18591;47.080;22.214;2023-02-22T01:26:52;99473.59;;;9.60;53.76
21803;BME280;18591;47.080;22.214;2023-02-22T01:28:54;99471.97;;;9.56;53.73
21803;BME280;18591;47.080;22.214;2023-02-22T01:30:56;99464.03;;;9.53;53.68
21803;BME280;18591;47.080;22.214;2023-02-22T01:32:59;99458.75;;;9.50;53.74
21803;BME280;18591;47.080;22.214;2023-02-22T01:35:07;99461.44;;;9.50;53.68
21803;BME280;18591;47.080;22.214;2023-02-22T01:37:12;99469.59;;;9.47;53.96
21803;BME280;18591;47.080;22.214;2023-02-22T01:39:15;99480.41;;;9.46;53.54
21803;BME280;18591;47.080;22.214;2023-02-22T01:41:18;99479.41;;;9.48;53.71
21803;BME280;18591;47.080;22.214;2023-02-22T01:43:29;99482.53;;;9.36;53.92
21803;BME280;18591;47.080;22.214;2023-02-22T01:47:33;99485.13;;;9.37;53.51
21803;BME280;18591;47.080;22.214;2023-02-22T01:49:40;99482.63;;;9.33;53.63
21803;BME280;18591;47.080;22.214;2023-02-22T01:51:46;99486.28;;;9.30;53.52
21803;BME280;18591;47.080;22.214;2023-02-22T01:55:55;99484.59;;;9.28;53.90
21803;BME280;18591;47.080;22.214;2023-02-22T01:57:58;99488.28;;;9.24;53.85
21803;BME280;18591;47.080;22.214;2023-02-22T02:00:06;99488.41;;;9.21;53.93
21803;BME280;18591;47.080;22.214;2023-02-22T02:02:17;99489.22;;;9.23;53.66
21803;BME280;18591;47.080;22.214;2023-02-22T02:04:21;99491.22;;;9.16;54.01
21803;BME280;18591;47.080;22.214;2023-02-22T02:06:31;99485.88;;;9.16;53.75
21803;BME280;18591;47.080;22.214;2023-02-22T02:10:54;99487.78;;;9.12;53.52
21803;BME280;18591;47.080;22.214;2023-02-22T02:12:58;99484.13;;;9.15;53.94
21803;BME280;18591;47.080;22.214;2023-02-22T02:15:25;99486.22;;;9.05;53.89
21803;BME280;18591;47.080;22.214;2023-02-22T02:17:29;99487.81;;;9.11;53.95
21803;BME280;18591;47.080;22.214;2023-02-22T02:29:37;99487.06;;;8.79;56.72
21803;BME280;18591;47.080;22.214;2023-02-22T02:32:07;99493.88;;;8.89;56.75
21803;BME280;18591;47.080;22.214;2023-02-22T02:38:58;99492.53;;;9.04;56.77
21803;BME280;18591;47.080;22.214;2023-02-22T02:41:09;99492.41;;;9.07;56.75
21803;BME280;18591;47.080;22.214;2023-02-22T02:43:20;99488.88;;;9.07;56.70
21803;BME280;18591;47.080;22.214;2023-02-22T02:45:35;99483.50;;;9.07;57.11
21803;BME280;18591;47.080;22.214;2023-02-22T02:47:45;99493.50;;;9.02;56.75
21803;BME280;18591;47.080;22.214;2023-02-22T02:50:05;99496.91;;;9.07;56.52
21803;BME280;18591;47.080;22.214;2023-02-22T02:52:10;99491.47;;;9.08;55.89
21803;BME280;18591;47.080;22.214;2023-02-22T02:54:14;99498.59;;;9.09;56.07
21803;BME280;18591;47.080;22.214;2023-02-22T02:56:17;99500.34;;;9.10;56.62
21803;BME280;18591;47.080;22.214;2023-02-22T02:58:22;99494.06;;;9.11;56.13
21803;BME280;18591;47.080;22.214;2023-02-22T03:00:30;99499.41;;;9.11;56.58
21803;BME280;18591;47.080;22.214;2023-02-22T03:15:02;99513.88;;;9.06;56.88
21803;BME280;18591;47.080;22.214;2023-02-22T03:19:44;99504.72;;;9.13;57.89
21803;BME280;18591;47.080;22.214;2023-02-22T03:26:13;99508.06;;;9.20;57.13
21803;BME280;18591;47.080;22.214;2023-02-22T03:28:24;99505.38;;;9.20;57.62
21803;BME280;18591;47.080;22.214;2023-02-22T03:35:49;99508.91;;;9.22;57.61
21803;BME280;18591;47.080;22.214;2023-02-22T03:38:01;99515.97;;;9.24;57.83
21803;BME280;18591;47.080;22.214;2023-02-22T03:40:07;99512.25;;;9.28;57.07
21803;BME280;18591;47.080;22.214;2023-02-22T03:42:23;99523.00;;;9.28;57.91
21803;BME280;18591;47.080;22.214;2023-02-22T03:44:28;99525.59;;;9.30;57.58
21803;BME280;18591;47.080;22.214;2023-02-22T03:46:33;99523.09;;;9.25;57.13
21803;BME280;18591;47.080;22.214;2023-02-22T03:51:04;99532.66;;;9.32;57.50
21803;BME280;18591;47.080;22.214;2023-02-22T03:53:07;99538.00;;;9.34;57.25
21803;BME280;18591;47.080;22.214;2023-02-22T03:55:14;99532.50;;;9.37;57.48
21803;BME280;18591;47.080;22.214;2023-02-22T03:57:32;99537.16;;;9.32;58.19
21803;BME280;18591;47.080;22.214;2023-02-22T03:59:39;99534.22;;;9.40;56.97
21803;BME280;18591;47.080;22.214;2023-02-22T04:01:42;99538.69;;;9.41;57.30
21803;BME280;18591;47.080;22.214;2023-02-22T04:03:44;99536.91;;;9.40;57.46
21803;BME280;18591;47.080;22.214;2023-02-22T04:05:47;99536.03;;;9.39;57.55
21803;BME280;18591;47.080;22.214;2023-02-22T04:07:55;99534.38;;;9.35;58.18
21803;BME280;18591;47.080;22.214;2023-02-22T04:09:57;99523.56;;;9.38;57.51
21803;BME280;18591;47.080;22.214;2023-02-22T04:11:59;99529.91;;;9.35;57.89
21803;BME280;18591;47.080;22.214;2023-02-22T04:14:04;99528.13;;;9.34;57.91
21803;BME280;18591;47.080;22.214;2023-02-22T04:16:06;99536.25;;;9.33;58.37
21803;BME280;18591;47.080;22.214;2023-02-22T04:18:09;99539.84;;;9.32;58.55
21803;BME280;18591;47.080;22.214;2023-02-22T04:20:12;99538.69;;;9.41;58.32
21803;BME280;18591;47.080;22.214;2023-02-22T04:22:22;99540.38;;;9.43;57.90
21803;BME280;18591;47.080;22.214;2023-02-22T04:24:26;99540.47;;;9.40;58.21
21803;BME280;18591;47.080;22.214;2023-02-22T04:26:31;99544.06;;;9.39;57.89
21803;BME280;18591;47.080;22.214;2023-02-22T04:28:35;99536.75;;;9.44;57.81
21803;BME280;18591;47.080;22.214;2023-02-22T04:30:47;99542.81;;;9.51;57.85
21803;BME280;18591;47.080;22.214;2023-02-22T04:32:51;99541.09;;;9.48;57.81
21803;BME280;18591;47.080;22.214;2023-02-22T04:34:55;99546.47;;;9.48;58.20
21803;BME280;18591;47.080;22.214;2023-02-22T04:36:58;99541.03;;;9.50;58.07
21803;BME280;18591;47.080;22.214;2023-02-22T04:39:01;99536.53;;;9.50;58.27
21803;BME280;18591;47.080;22.214;2023-02-22T04:41:04;99548.25;;;9.48;58.55
21803;BME280;18591;47.080;22.214;2023-02-22T04:43:06;99542.16;;;9.43;58.73
21803;BME280;18591;47.080;22.214;2023-02-22T04:45:12;99545.53;;;9.49;58.65
21803;BME280;18591;47.080;22.214;2023-02-22T04:47:14;99542.09;;;9.46;59.25
21803;BME280;18591;47.080;22.214;2023-02-22T04:49:16;99546.63;;;9.44;58.56
21803;BME280;18591;47.080;22.214;2023-02-22T04:51:20;99537.50;;;9.48;58.47
21803;BME280;18591;47.080;22.214;2023-02-22T04:53:36;99539.19;;;9.52;58.32
21803;BME280;18591;47.080;22.214;2023-02-22T04:55:39;99539.22;;;9.50;58.50
21803;BME280;18591;47.080;22.214;2023-02-22T04:57:42;99541.97;;;9.49;58.16
21803;BME280;18591;47.080;22.214;2023-02-22T04:59:45;99540.91;;;9.53;58.59
21803;BME280;18591;47.080;22.214;2023-02-22T05:01:48;99549.94;;;9.50;58.27
21803;BME280;18591;47.080;22.214;2023-02-22T05:03:50;99545.56;;;9.48;59.14
21803;BME280;18591;47.080;22.214;2023-02-22T05:05:52;99549.91;;;9.52;58.80
21803;BME280;18591;47.080;22.214;2023-02-22T05:07:54;99542.72;;;9.52;59.23
21803;BME280;18591;47.080;22.214;2023-02-22T05:09:56;99540.00;;;9.54;59.51
21803;BME280;18591;47.080;22.214;2023-02-22T05:11:58;99548.09;;;9.52;60.10
21803;BME280;18591;47.080;22.214;2023-02-22T05:14:00;99554.31;;;9.53;60.37
21803;BME280;18591;47.080;22.214;2023-02-22T05:16:03;99550.38;;;9.65;60.03
21803;BME280;18591;47.080;22.214;2023-02-22T05:18:05;99549.16;;;9.73;60.10
21803;BME280;18591;47.080;22.214;2023-02-22T05:20:15;99556.16;;;9.79;60.17
21803;BME280;18591;47.080;22.214;2023-02-22T05:22:20;99548.75;;;9.86;59.97
21803;BME280;18591;47.080;22.214;2023-02-22T05:24:22;99555.63;;;9.94;59.45
21803;BME280;18591;47.080;22.214;2023-02-22T05:26:24;99556.53;;;9.93;59.74
21803;BME280;18591;47.080;22.214;2023-02-22T05:28:28;99558.91;;;10.02;59.90
21803;BME280;18591;47.080;22.214;2023-02-22T05:30:32;99562.44;;;10.03;59.61
21803;BME280;18591;47.080;22.214;2023-02-22T05:32:35;99560.47;;;10.08;59.45
21803;BME280;18591;47.080;22.214;2023-02-22T05:34:37;99563.91;;;10.12;59.30
21803;BME280;18591;47.080;22.214;2023-02-22T05:36:40;99564.84;;;10.11;59.94
21803;BME280;18591;47.080;22.214;2023-02-22T05:38:42;99569.56;;;10.04;59.25
21803;BME280;18591;47.080;22.214;2023-02-22T05:40:45;99574.00;;;10.05;59.79
21803;BME280;18591;47.080;22.214;2023-02-22T05:42:49;99566.16;;;9.99;59.90
21803;BME280;18591;47.080;22.214;2023-02-22T05:44:51;99578.66;;;10.00;59.51
21803;BME280;18591;47.080;22.214;2023-02-22T05:46:53;99580.41;;;10.01;59.25
21803;BME280;18591;47.080;22.214;2023-02-22T05:48:56;99586.75;;;9.98;59.47
21803;BME280;18591;47.080;22.214;2023-02-22T05:51:00;99590.44;;;9.96;59.85
21803;BME280;18591;47.080;22.214;2023-02-22T05:53:02;99588.69;;;9.95;59.52
21803;BME280;18591;47.080;22.214;2023-02-22T05:55:08;99602.97;;;9.95;59.58
21803;BME280;18591;47.080;22.214;2023-02-22T05:57:10;99603.84;;;9.96;59.80
21803;BME280;18591;47.080;22.214;2023-02-22T05:59:12;99606.88;;;9.87;59.96
21803;BME280;18591;47.080;22.214;2023-02-22T06:01:14;99609.59;;;9.85;59.73
21803;BME280;18591;47.080;22.214;2023-02-22T06:03:17;99613.00;;;9.90;59.87
21803;BME280;18591;47.080;22.214;2023-02-22T06:05:20;99615.81;;;9.86;59.67
21803;BME280;18591;47.080;22.214;2023-02-22T06:07:22;99620.31;;;9.85;59.77
21803;BME280;18591;47.080;22.214;2023-02-22T06:09:25;99619.22;;;9.91;59.92
21803;BME280;18591;47.080;22.214;2023-02-22T06:11:27;99619.22;;;9.91;59.54
21803;BME280;18591;47.080;22.214;2023-02-22T06:13:29;99628.97;;;9.93;59.74
21803;BME280;18591;47.080;22.214;2023-02-22T06:15:32;99624.28;;;10.00;59.64
21803;BME280;18591;47.080;22.214;2023-02-22T06:17:34;99634.50;;;9.89;60.44
21803;BME280;18591;47.080;22.214;2023-02-22T06:19:37;99634.25;;;9.96;59.92
21803;BME280;18591;47.080;22.214;2023-02-22T06:21:50;99630.38;;;10.05;59.87
21803;BME280;18591;47.080;22.214;2023-02-22T06:23:52;99642.66;;;10.12;58.36
21803;BME280;18591;47.080;22.214;2023-02-22T06:25:54;99637.94;;;10.19;58.48
21803;BME280;18591;47.080;22.214;2023-02-22T06:27:58;99646.66;;;10.25;57.75
21803;BME280;18591;47.080;22.214;2023-02-22T06:30:01;99649.34;;;10.25;57.76
21803;BME280;18591;47.080;22.214;2023-02-22T06:32:03;99649.16;;;10.32;57.61
21803;BME280;18591;47.080;22.214;2023-02-22T06:34:06;99645.56;;;10.33;57.54
21803;BME280;18591;47.080;22.214;2023-02-22T06:36:08;99643.63;;;10.36;57.21
21803;BME280;18591;47.080;22.214;2023-02-22T06:38:10;99647.97;;;10.40;56.30
21803;BME280;18591;47.080;22.214;2023-02-22T06:40:13;99658.66;;;10.42;56.48
21803;BME280;18591;47.080;22.214;2023-02-22T06:42:15;99654.06;;;10.45;55.65
21803;BME280;18591;47.080;22.214;2023-02-22T06:44:17;99662.03;;;10.47;55.39
21803;BME280;18591;47.080;22.214;2023-02-22T06:46:20;99662.00;;;10.49;55.31
21803;BME280;18591;47.080;22.214;2023-02-22T06:48:22;99662.13;;;10.45;55.43
21803;BME280;18591;47.080;22.214;2023-02-22T06:50:28;99671.03;;;10.46;54.80
21803;BME280;18591;47.080;22.214;2023-02-22T06:52:31;99671.88;;;10.48;54.37
21803;BME280;18591;47.080;22.214;2023-02-22T06:54:33;99659.34;;;10.47;54.33
21803;BME280;18591;47.080;22.214;2023-02-22T06:56:35;99663.75;;;10.50;53.95
21803;BME280;18591;47.080;22.214;2023-02-22T06:58:37;99661.81;;;10.53;54.00
21803;BME280;18591;47.080;22.214;2023-02-22T07:00:39;99670.78;;;10.54;53.58
21803;BME280;18591;47.080;22.214;2023-02-22T07:02:42;99662.75;;;10.52;53.40
21803;BME280;18591;47.080;22.214;2023-02-22T07:04:44;99672.75;;;10.49;53.06
21803;BME280;18591;47.080;22.214;2023-02-22T07:06:47;99678.84;;;10.54;53.21
21803;BME280;18591;47.080;22.214;2023-02-22T07:08:50;99677.06;;;10.53;53.04
21803;BME280;18591;47.080;22.214;2023-02-22T07:10:52;99680.56;;;10.55;52.57
21803;BME280;18591;47.080;22.214;2023-02-22T07:12:55;99685.78;;;10.59;52.17
21803;BME280;18591;47.080;22.214;2023-02-22T07:14:57;99672.28;;;10.61;52.36
21803;BME280;18591;47.080;22.214;2023-02-22T07:16:59;99672.25;;;10.62;52.17
21803;BME280;18591;47.080;22.214;2023-02-22T07:19:01;99673.06;;;10.64;51.94
21803;BME280;18591;47.080;22.214;2023-02-22T07:21:04;99671.38;;;10.62;51.32
21803;BME280;18591;47.080;22.214;2023-02-22T07:23:07;99663.91;;;10.70;51.49
21803;BME280;18591;47.080;22.214;2023-02-22T07:25:12;99668.13;;;10.77;51.71
21803;BME280;18591;47.080;22.214;2023-02-22T07:27:14;99666.19;;;10.81;51.21
21803;BME280;18591;47.080;22.214;2023-02-22T07:29:17;99666.59;;;10.94;50.71
21803;BME280;18591;47.080;22.214;2023-02-22T07:31:20;99669.00;;;11.01;50.53
21803;BME280;18591;47.080;22.214;2023-02-22T07:33:22;99663.13;;;11.15;49.29
21803;BME280;18591;47.080;22.214;2023-02-22T07:35:29;99662.88;;;11.21;47.80
21803;BME280;18591;47.080;22.214;2023-02-22T07:37:32;99667.59;;;11.38;48.86
21803;BME280;18591;47.080;22.214;2023-02-22T07:39:34;99672.56;;;11.49;48.21
21803;BME280;18591;47.080;22.214;2023-02-22T07:41:38;99671.94;;;11.64;48.82
21803;BME280;18591;47.080;22.214;2023-02-22T07:43:55;99665.78;;;11.83;48.08
21803;BME280;18591;47.080;22.214;2023-02-22T07:45:58;99670.56;;;11.98;45.81
21803;BME280;18591;47.080;22.214;2023-02-22T07:48:02;99676.25;;;12.12;46.71
21803;BME280;18591;47.080;22.214;2023-02-22T07:50:05;99672.63;;;12.13;46.43
21803;BME280;18591;47.080;22.214;2023-02-22T07:52:07;99671.81;;;12.11;45.35
21803;BME280;18591;47.080;22.214;2023-02-22T07:54:09;99673.81;;;12.06;45.39
21803;BME280;18591;47.080;22.214;2023-02-22T07:56:11;99668.47;;;12.05;45.58
21803;BME280;18591;47.080;22.214;2023-02-22T07:58:14;99674.81;;;12.04;44.39
21803;BME280;18591;47.080;22.214;2023-02-22T08:00:22;99667.69;;;12.03;43.42
21803;BME280;18591;47.080;22.214;2023-02-22T08:02:25;99671.06;;;12.08;44.44
21803;BME280;18591;47.080;22.214;2023-02-22T08:04:27;99665.59;;;12.09;44.61
21803;BME280;18591;47.080;22.214;2023-02-22T08:06:32;99671.84;;;12.10;44.37
21803;BME280;18591;47.080;22.214;2023-02-22T08:08:34;99663.78;;;12.10;44.20
21803;BME280;18591;47.080;22.214;2023-02-22T08:10:37;99664.59;;;12.12;44.94
21803;BME280;18591;47.080;22.214;2023-02-22T08:12:39;99666.28;;;12.14;44.39
21803;BME280;18591;47.080;22.214;2023-02-22T08:14:41;99664.47;;;12.15;44.00
21803;BME280;18591;47.080;22.214;2023-02-22T08:16:43;99664.09;;;12.24;44.24
21803;BME280;18591;47.080;22.214;2023-02-22T08:18:46;99669.09;;;12.33;43.76
21803;BME280;18591;47.080;22.214;2023-02-22T08:20:50;99658.97;;;12.38;43.43
21803;BME280;18591;47.080;22.214;2023-02-22T08:22:55;99672.44;;;12.38;41.90
21803;BME280;18591;47.080;22.214;2023-02-22T08:24:57;99664.47;;;12.56;43.45
21803;BME280;18591;47.080;22.214;2023-02-22T08:26:59;99660.38;;;12.68;43.62
21803;BME280;18591;47.080;22.214;2023-02-22T08:29:02;99667.91;;;12.80;43.15
21803;BME280;18591;47.080;22.214;2023-02-22T08:31:04;99667.38;;;12.92;43.75
21803;BME280;18591;47.080;22.214;2023-02-22T08:33:09;99670.38;;;13.05;43.28
21803;BME280;18591;47.080;22.214;2023-02-22T08:35:12;99659.84;;;13.18;43.48
21803;BME280;18591;47.080;22.214;2023-02-22T08:37:16;99667.84;;;13.21;43.17
21803;BME280;18591;47.080;22.214;2023-02-22T08:39:19;99675.78;;;13.24;41.37
21803;BME280;18591;47.080;22.214;2023-02-22T08:41:21;99663.31;;;13.21;41.46
21803;BME280;18591;47.080;22.214;2023-02-22T08:43:23;99670.44;;;13.22;41.30
21803;BME280;18591;47.080;22.214;2023-02-22T08:45:26;99667.59;;;13.25;42.05
21803;BME280;18591;47.080;22.214;2023-02-22T08:47:28;99656.94;;;13.22;40.74
21803;BME280;18591;47.080;22.214;2023-02-22T08:49:30;99662.09;;;13.28;42.20
21803;BME280;18591;47.080;22.214;2023-02-22T08:51:35;99664.56;;;13.33;40.04
21803;BME280;18591;47.080;22.214;2023-02-22T08:53:38;99666.03;;;13.40;41.90
21803;BME280;18591;47.080;22.214;2023-02-22T08:55:40;99673.09;;;13.43;40.78
21803;BME280;18591;47.080;22.214;2023-02-22T08:57:42;99667.28;;;13.52;41.49
21803;BME280;18591;47.080;22.214;2023-02-22T08:59:45;99673.13;;;13.62;40.88
21803;BME280;18591;47.080;22.214;2023-02-22T09:01:47;99671.50;;;13.58;41.12
21803;BME280;18591;47.080;22.214;2023-02-22T09:03:50;99667.47;;;13.66;41.29
21803;BME280;18591;47.080;22.214;2023-02-22T09:05:52;99666.31;;;13.72;40.77
21803;BME280;18591;47.080;22.214;2023-02-22T09:07:55;99675.06;;;13.77;41.14
21803;BME280;18591;47.080;22.214;2023-02-22T09:09:57;99669.50;;;13.80;40.45
21803;BME280;18591;47.080;22.214;2023-02-22T09:12:00;99675.72;;;13.82;40.57
21803;BME280;18591;47.080;22.214;2023-02-22T09:14:03;99676.19;;;13.90;40.42
21803;BME280;18591;47.080;22.214;2023-02-22T09:16:05;99678.53;;;13.98;41.40
21803;BME280;18591;47.080;22.214;2023-02-22T09:18:10;99679.38;;;13.99;39.84
21803;BME280;18591;47.080;22.214;2023-02-22T09:20:13;99682.97;;;13.99;40.32
21803;BME280;18591;47.080;22.214;2023-02-22T09:22:18;99675.88;;;13.97;39.93
21803;BME280;18591;47.080;22.214;2023-02-22T09:24:21;99684.78;;;13.99;40.35
21803;BME280;18591;47.080;22.214;2023-02-22T09:26:23;99682.56;;;14.07;40.04
21803;BME280;18591;47.080;22.214;2023-02-22T09:28:26;99684.34;;;14.08;39.38
21803;BME280;18591;47.080;22.214;2023-02-22T09:30:34;99688.56;;;14.13;38.81
21803;BME280;18591;47.080;22.214;2023-02-22T09:32:36;99686.16;;;14.25;39.48
21803;BME280;18591;47.080;22.214;2023-02-22T09:34:39;99684.91;;;14.32;40.03
21803;BME280;18591;47.080;22.214;2023-02-22T09:36:47;99681.88;;;14.38;39.61
21803;BME280;18591;47.080;22.214;2023-02-22T09:38:50;99689.69;;;14.44;39.31
21803;BME280;18591;47.080;22.214;2023-02-22T09:41:11;99689.88;;;14.41;37.17
21803;BME280;18591;47.080;22.214;2023-02-22T09:48:00;99691.06;;;14.53;38.91
21803;BME280;18591;47.080;22.214;2023-02-22T09:50:25;99676.44;;;14.57;38.37
21803;BME280;18591;47.080;22.214;2023-02-22T09:52:39;99682.78;;;14.56;37.93
21803;BME280;18591;47.080;22.214;2023-02-22T09:54:46;99688.75;;;14.63;39.17
21803;BME280;18591;47.080;22.214;2023-02-22T09:56:55;99692.09;;;14.68;38.96
21803;BME280;18591;47.080;22.214;2023-02-22T09:59:02;99694.00;;;14.66;39.50
21803;BME280;18591;47.080;22.214;2023-02-22T10:01:27;99693.19;;;14.64;37.70
21803;BME280;18591;47.080;22.214;2023-02-22T10:03:38;99685.19;;;14.62;38.39
21803;BME280;18591;47.080;22.214;2023-02-22T10:05:43;99687.25;;;14.57;38.53
21803;BME280;18591;47.080;22.214;2023-02-22T10:08:00;99685.00;;;14.48;37.16
21803;BME280;18591;47.080;22.214;2023-02-22T10:10:14;99678.63;;;14.49;38.03
21803;BME280;18591;47.080;22.214;2023-02-22T10:12:27;99682.28;;;14.48;38.34
21803;BME280;18591;47.080;22.214;2023-02-22T10:14:45;99682.34;;;14.46;38.77
21803;BME280;18591;47.080;22.214;2023-02-22T10:24:53;99677.28;;;14.40;38.58
21803;BME280;18591;47.080;22.214;2023-02-22T10:26:58;99676.19;;;14.44;38.42
21803;BME280;18591;47.080;22.214;2023-02-22T10:29:03;99668.06;;;14.44;38.67
21803;BME280;18591;47.080;22.214;2023-02-22T10:31:11;99656.78;;;14.36;38.00
21803;BME280;18591;47.080;22.214;2023-02-22T10:33:25;99671.34;;;14.33;39.02
21803;BME280;18591;47.080;22.214;2023-02-22T10:35:37;99662.19;;;14.36;38.08
21803;BME280;18591;47.080;22.214;2023-02-22T10:37:42;99663.88;;;14.38;38.90
21803;BME280;18591;47.080;22.214;2023-02-22T10:39:47;99665.94;;;14.33;38.10
21803;BME280;18591;47.080;22.214;2023-02-22T10:41:53;99660.81;;;14.27;38.10
21803;BME280;18591;47.080;22.214;2023-02-22T10:43:57;99658.06;;;14.29;38.27
21803;BME280;18591;47.080;22.214;2023-02-22T10:46:02;99659.00;;;14.28;38.52
21803;BME280;18591;47.080;22.214;2023-02-22T10:48:10;99654.63;;;14.25;38.23
21803;BME280;18591;47.080;22.214;2023-02-22T10:50:14;99654.56;;;14.27;39.14
21803;BME280;18591;47.080;22.214;2023-02-22T10:52:25;99652.41;;;14.33;38.68
21803;BME280;18591;47.080;22.214;2023-02-22T10:54:37;99656.78;;;14.36;38.66
21803;BME280;18591;47.080;22.214;2023-02-22T10:56:47;99658.53;;;14.37;39.38
21803;BME280;18591;47.080;22.214;2023-02-22T11:00:58;99655.03;;;14.52;39.56
21803;BME280;18591;47.080;22.214;2023-02-22T11:03:03;99641.56;;;14.51;38.09
21803;BME280;18591;47.080;22.214;2023-02-22T11:05:41;99642.84;;;14.44;38.17
21803;BME280;18591;47.080;22.214;2023-02-22T11:07:43;99638.81;;;14.52;39.21
21803;BME280;18591;47.080;22.214;2023-02-22T11:10:06;99633.88;;;14.43;37.84
21803;BME280;18591;47.080;22.214;2023-02-22T11:12:18;99629.19;;;14.47;37.93
21803;BME280;18591;47.080;22.214;2023-02-22T11:14:29;99629.31;;;14.44;37.29
21803;BME280;18591;47.080;22.214;2023-02-22T11:18:38;99634.66;;;14.45;38.76
21803;BME280;18591;47.080;22.214;2023-02-22T11:20:41;99634.34;;;14.51;38.59
21803;BME280;18591;47.080;22.214;2023-02-22T11:22:43;99634.66;;;14.45;39.07
21803;BME280;18591;47.080;22.214;2023-02-22T11:24:46;99633.56;;;14.49;39.08
21803;BME280;18591;47.080;22.214;2023-02-22T11:26:59;99627.00;;;14.55;39.20
21803;BME280;18591;47.080;22.214;2023-02-22T11:29:17;99626.41;;;14.66;38.73
21803;BME280;18591;47.080;22.214;2023-02-22T11:31:25;99623.53;;;14.69;39.30
21803;BME280;18591;47.080;22.214;2023-02-22T11:33:28;99620.50;;;14.75;39.13
21803;BME280;18591;47.080;22.214;2023-02-22T11:35:35;99627.72;;;14.74;38.93
21803;BME280;18591;47.080;22.214;2023-02-22T11:37:37;99616.66;;;14.79;38.80
21803;BME280;18591;47.080;22.214;2023-02-22T11:39:40;99621.13;;;14.80;39.09
21803;BME280;18591;47.080;22.214;2023-02-22T11:41:45;99622.19;;;14.77;38.38
21803;BME280;18591;47.080;22.214;2023-02-22T11:43:50;99626.63;;;14.78;39.06
21803;BME280;18591;47.080;22.214;2023-02-22T11:46:08;99623.22;;;14.75;37.95
21803;BME280;18591;47.080;22.214;2023-02-22T11:48:18;99620.59;;;14.73;39.01
21803;BME280;18591;47.080;22.214;2023-02-22T11:50:32;99615.59;;;14.66;38.46
21803;BME280;18591;47.080;22.214;2023-02-22T11:52:44;99609.53;;;14.78;38.38
21803;BME280;18591;47.080;22.214;2023-02-22T11:58:08;99610.94;;;14.85;38.37
21803;BME280;18591;47.080;22.214;2023-02-22T12:00:29;99595.66;;;14.84;38.22
21803;BME280;18591;47.080;22.214;2023-02-22T12:08:14;99600.03;;;14.87;38.16
21803;BME280;18591;47.080;22.214;2023-02-22T12:10:34;99595.66;;;14.84;38.16
21803;BME280;18591;47.080;22.214;2023-02-22T12:12:48;99595.75;;;14.83;38.09